Latest Weather Observations for Edithburgh

IDS60801

Issued at 2:02 pm CST Saturday 18 April 2015 (issued every 30 minutes, with the page automatically refreshed every 10 minutes)

About weather observations | Map of weather stations | Latest weather observations for SA | Other Formats
Station Details ID: 022046 Name: EDITHBURGH Lat: -35.11 Lon: 137.74 Height: 6.0 m
Data from the previous 72 hours. | See also: Recent months at Edithburgh
Date/Time
CST
Temp
°C
App
Temp
°C
Dew
Point
Rel
Hum
%
Delta-T
°C
Wind Press
QNH
hPa
Press
MSL
hPa
Rain
since 9 am
mm
Dir
 
Spd
km/h
Gust
km/h
Spd
kts
Gust
kts
18/02:00pm 17.3 14.5 15.4 88 1.1 WNW 24 35 13 19 1016.4 1016.4 1.4
18/01:30pm 18.7 14.7 14.2 75 2.6 WNW 28 39 15 21 1015.9 1015.9 0.6
18/01:00pm 18.5 13.9 14.7 78 2.2 WNW 32 44 17 24 1016.3 1016.3 0.2
18/12:30pm 18.9 14.2 14.4 75 2.6 NW 32 39 17 21 1016.3 1016.3 0.0
18/12:00pm 18.5 14.3 14.7 78 2.2 NW 30 39 16 21 1016.7 1016.7 0.0
18/11:30am 18.8 14.5 14.3 75 2.6 NW 30 41 16 22 1017.0 1017.0 0.0
18/11:00am 17.5 12.9 14.7 83 1.6 NW 32 41 17 22 1017.2 1017.2 0.0
18/10:30am 17.4 14.2 15.3 87 1.2 NW 26 37 14 20 1017.3 1017.3 0.0
18/10:00am 16.9 12.5 14.1 83 1.6 NW 30 39 16 21 1017.3 1017.3 0.0
18/09:30am 16.3 12.8 14.6 90 1.0 NW 26 33 14 18 1017.6 1017.6 0.0
18/09:00am 15.4 12.7 13.6 89 1.0 WNW 20 28 11 15 1017.7 1017.7 4.0
18/08:30am 15.6 13.8 13.3 86 1.3 NNW 15 19 8 10 1017.5 1017.5 4.0
18/08:00am 13.8 12.1 12.3 91 0.8 NW 13 17 7 9 1017.3 1017.3 4.0
18/07:30am 12.6 10.9 11.3 92 0.7 NW 11 15 6 8 1016.9 1016.9 4.0
18/07:00am 10.9 9.2 9.9 93 0.5 NNW 9 11 5 6 1016.6 1016.6 4.0
18/06:30am 9.6 7.2 8.8 95 0.4 NW 11 11 6 6 1016.7 1016.7 4.0
18/06:00am 8.2 6.2 7.3 94 0.4 NNW 7 9 4 5 1016.5 1016.5 4.0
18/05:30am 8.7 6.1 7.9 95 0.4 NW 11 11 6 6 1016.5 1016.5 3.8
18/05:00am 8.8 6.2 7.7 93 0.5 NW 11 11 6 6 1016.4 1016.4 3.8
18/04:30am 9.5 7.0 8.3 92 0.6 NW 11 13 6 7 1016.2 1016.2 3.8
18/04:00am 10.6 7.9 9.0 90 0.8 WNW 13 15 7 8 1016.1 1016.1 3.8
18/03:30am 10.7 8.5 9.3 91 0.7 WNW 11 13 6 7 1016.0 1016.0 3.8
18/03:00am 12.0 10.0 10.0 87 1.0 WNW 11 15 6 8 1016.1 1016.1 3.8
18/02:30am 13.6 11.0 10.7 82 1.5 WNW 15 17 8 9 1016.2 1016.2 3.8
18/02:00am 14.0 12.2 12.1 88 1.0 WNW 13 20 7 11 1016.5 1016.5 3.8
18/01:30am 14.5 13.7 12.9 90 0.9 WNW 9 13 5 7 1016.6 1016.6 3.8
18/01:00am 14.4 13.7 13.3 93 0.6 W 9 11 5 6 1016.7 1016.7 3.8
18/12:30am 14.8 14.6 13.7 93 0.6 WNW 7 9 4 5 1016.7 1016.7 3.8
18/12:00am 14.9 14.4 12.7 87 1.2 WSW 7 9 4 5 1017.0 1017.0 3.8
 
Date/Time
CST
Temp
°C
App
Temp
°C
Dew
Point
Rel
Hum
%
Delta-T
°C
Wind Press
QNH
hPa
Press
MSL
hPa
Rain
since 9 am
mm
Dir
 
Spd
km/h
Gust
km/h
Spd
kts
Gust
kts
17/11:30pm 14.7 14.1 12.3 85 1.3 SW 7 9 4 5 1017.2 1017.2 3.8
17/11:00pm 14.6 14.0 12.2 85 1.3 SW 7 9 4 5 1017.4 1017.4 3.8
17/10:30pm 14.7 13.0 12.3 85 1.3 SW 13 19 7 10 1017.8 1017.8 3.8
17/10:00pm 14.9 14.7 13.5 91 0.8 SW 7 11 4 6 1017.9 1017.9 3.8
17/09:30pm 14.8 14.5 13.4 91 0.8 SW 7 9 4 5 1017.8 1017.8 3.8
17/09:00pm 14.8 14.5 13.4 91 0.8 SW 7 11 4 6 1017.7 1017.7 3.8
17/08:30pm 14.7 14.5 13.1 90 0.9 S 6 7 3 4 1017.4 1017.4 3.8
17/08:00pm 14.8 14.2 13.4 91 0.8 S 9 13 5 7 1017.4 1017.4 3.8
17/07:30pm 14.8 13.1 13.5 92 0.7 SSE 15 20 8 11 1017.2 1017.2 3.8
17/07:00pm 14.6 12.9 13.7 94 0.5 S 15 20 8 11 1017.0 1017.0 3.8
17/06:30pm 14.4 13.1 13.7 96 0.4 S 13 17 7 9 1016.9 1016.9 3.8
17/06:00pm 14.5 13.5 13.4 93 0.6 SW 11 15 6 8 1016.9 1016.9 3.2
17/05:30pm 14.8 14.7 13.4 91 0.8 SW 6 7 3 4 1016.5 1016.5 2.8
17/05:00pm 14.7 14.3 12.9 89 1.0 S 7 9 4 5 1016.2 1016.2 2.8
17/04:30pm 14.7 14.0 13.1 90 0.9 SE 9 11 5 6 1016.2 1016.2 2.8
17/04:00pm 14.6 13.4 12.8 89 1.0 SE 11 13 6 7 1016.2 1016.2 2.8
17/03:30pm 14.6 12.7 13.0 90 0.9 ESE 15 20 8 11 1016.0 1016.0 2.8
17/03:00pm 14.5 12.7 13.4 93 0.6 ESE 15 22 8 12 1015.9 1015.9 2.8
17/02:30pm 13.9 11.5 12.6 92 0.7 ESE 17 24 9 13 1016.1 1016.1 1.6
17/02:00pm 14.7 12.1 11.9 83 1.5 ESE 17 22 9 12 1016.8 1016.8 0.0
17/01:30pm 14.9 11.8 11.7 81 1.7 ESE 19 26 10 14 1017.3 1017.3 0.0
17/01:00pm 14.8 11.4 11.4 80 1.8 SE 20 26 11 14 1017.7 1017.7 0.0
17/12:30pm 14.9 10.9 11.7 81 1.7 SE 24 30 13 16 1018.2 1018.2 0.0
17/12:00pm 15.0 11.4 12.0 82 1.6 SE 22 28 12 15 1018.8 1018.8 0.0
17/11:30am 15.2 11.4 12.3 83 1.6 SE 24 32 13 17 1019.2 1019.2 0.0
17/11:00am 14.9 11.0 12.1 83 1.5 SE 24 33 13 18 1019.6 1019.6 0.0
17/10:30am 14.3 10.3 11.9 85 1.3 SE 24 32 13 17 1020.2 1020.1 0.0
17/10:00am 14.3 9.5 11.7 84 1.4 ESE 28 35 15 19 1020.4 1020.3 0.0
17/09:30am 14.0 9.3 11.9 87 1.1 ESE 28 35 15 19 1020.7 1020.6 0.0
17/09:00am 14.4 10.3 12.8 90 0.9 ESE 26 35 14 19 1020.9 1020.8 14.8
17/08:30am 14.7 10.5 12.3 85 1.3 ESE 26 35 14 19 1020.9 1020.8 14.8
17/08:00am 15.0 11.6 12.4 84 1.4 ESE 22 33 12 18 1020.8 1020.7 14.8
17/07:30am 14.9 11.1 12.5 85 1.3 SE 24 33 13 18 1020.7 1020.6 14.8
17/07:00am 14.7 12.1 13.3 91 0.8 SE 19 28 10 15 1020.4 1020.3 14.8
17/06:30am 14.4 10.3 12.6 89 1.0 SE 26 33 14 18 1020.4 1020.3 14.8
17/06:00am 14.5 12.0 13.4 93 0.6 SE 19 26 10 14 1020.4 1020.3 14.6
17/05:30am 14.8 13.1 13.5 92 0.7 ESE 15 20 8 11 1020.5 1020.4 14.4
17/05:00am 15.0 13.6 13.4 90 0.9 ESE 13 19 7 10 1021.0 1020.9 14.4
17/04:30am 14.8 13.0 13.2 90 0.9 ESE 15 19 8 10 1020.9 1020.8 14.4
17/04:00am 14.7 12.9 13.3 91 0.8 ESE 15 19 8 10 1020.9 1020.8 14.4
17/03:30am 14.5 12.3 13.2 92 0.7 ESE 17 20 9 11 1021.1 1021.0 14.4
17/03:00am 14.5 13.0 13.2 92 0.7 ESE 13 17 7 9 1021.5 1021.4 14.2
17/02:30am 14.5 13.0 13.2 92 0.7 E 13 19 7 10 1022.1 1022.0 13.8
17/02:00am 14.6 13.1 13.1 91 0.8 E 13 19 7 10 1022.3 1022.2 13.6
17/01:30am 14.7 12.5 13.3 91 0.8 E 17 20 9 11 1022.5 1022.4 13.2
17/01:00am 14.9 12.8 13.6 92 0.7 ESE 17 26 9 14 1022.9 1022.8 12.8
17/12:30am 14.9 12.2 13.6 92 0.7 SE 20 28 11 15 1022.9 1022.8 12.4
17/12:00am 15.0 12.4 13.7 92 0.7 SE 20 28 11 15 1023.3 1023.2 11.8
 
Date/Time
CST
Temp
°C
App
Temp
°C
Dew
Point
Rel
Hum
%
Delta-T
°C
Wind Press
QNH
hPa
Press
MSL
hPa
Rain
since 9 am
mm
Dir
 
Spd
km/h
Gust
km/h
Spd
kts
Gust
kts
16/11:30pm 14.9 12.4 13.5 91 0.8 ESE 19 24 10 13 1023.7 1023.6 11.4
16/11:00pm 15.0 12.6 13.7 92 0.7 SE 19 24 10 13 1024.1 1024.0 10.8
16/10:30pm 15.1 12.5 13.7 91 0.8 ESE 20 30 11 16 1024.1 1024.0 10.4
16/10:00pm 15.1 12.5 13.7 91 0.8 ESE 20 28 11 15 1024.2 1024.1 9.8
16/09:30pm 15.3 12.0 14.1 92 0.7 ESE 24 33 13 18 1024.4 1024.3 9.6
16/09:00pm 15.4 12.2 14.2 92 0.7 ESE 24 33 13 18 1024.5 1024.4 9.0
16/08:30pm 15.6 11.6 14.2 91 0.8 SE 28 33 15 18 1024.6 1024.5 8.2
16/08:00pm 15.7 12.5 14.3 91 0.8 SE 24 33 13 18 1024.5 1024.4 7.8
16/07:30pm 15.5 12.4 14.4 93 0.6 ESE 24 32 13 17 1024.4 1024.3 7.4
16/07:00pm 15.7 12.9 14.3 91 0.8 SE 22 30 12 16 1024.2 1024.1 6.6
16/06:30pm 16.0 14.3 14.8 93 0.7 SE 17 22 9 12 1024.3 1024.2 5.8
16/06:00pm 16.1 15.1 14.7 91 0.8 ESE 13 17 7 9 1024.0 1023.9 5.0
16/05:30pm 16.1 15.5 14.5 90 0.9 ESE 11 15 6 8 1023.7 1023.6 4.4
16/05:00pm 16.3 15.0 14.7 90 0.9 E 15 19 8 10 1023.6 1023.5 4.0
16/04:30pm 16.3 14.5 14.5 89 1.0 ESE 17 20 9 11 1023.5 1023.4 3.8
16/04:00pm 16.1 14.3 14.5 90 0.9 ESE 17 20 9 11 1023.8 1023.7 3.6
16/03:30pm 16.0 13.6 14.4 90 0.9 SE 20 26 11 14 1024.0 1023.9 3.6
16/03:00pm 16.0 13.8 14.8 93 0.7 SE 20 26 11 14 1024.4 1024.3 3.4
16/02:30pm 16.0 14.3 14.8 93 0.7 SE 17 22 9 12 1025.1 1025.0 2.8
16/02:00pm 16.5 15.6 14.8 90 1.0 SE 13 15 7 8 1025.4 1025.3 2.0
16/01:30pm 16.5 15.6 14.8 90 1.0 ESE 13 17 7 9 1025.3 1025.2 1.4
16/01:00pm 16.7 14.9 14.4 86 1.3 SE 17 19 9 10 1025.3 1025.2 1.2
16/12:30pm 17.1 15.8 14.7 86 1.4 SE 15 20 8 11 1025.2 1025.1 1.0
16/12:00pm 17.1 15.2 14.3 83 1.6 SE 17 20 9 11 1025.3 1025.2 1.0
16/11:30am 16.9 14.7 14.4 85 1.4 SE 19 26 10 14 1025.6 1025.5 1.0
16/11:00am 16.8 14.6 14.5 86 1.3 SE 19 22 10 12 1025.7 1025.6 1.0
16/10:30am 16.8 15.5 14.9 88 1.1 ESE 15 20 8 11 1026.1 1026.0 0.8
16/10:00am 16.6 16.0 14.7 88 1.1 ESE 11 17 6 9 1026.8 1026.7 0.4
16/09:30am 16.9 15.7 14.1 83 1.6 SE 13 17 7 9 1027.1 1027.0 0.0
16/09:00am 17.3 15.2 13.6 79 2.1 SSE 17 20 9 11 1027.2 1027.1 0.2
16/08:30am 17.4 15.6 13.3 77 2.3 SSE 15 17 8 9 1027.4 1027.3 0.2
16/08:00am 17.4 14.9 13.5 78 2.2 SSE 19 22 10 12 1026.8 1026.7 0.2
16/07:30am 17.2 15.5 13.6 79 2.0 SSE 15 20 8 11 1026.5 1026.4 0.2
16/07:00am 17.1 15.4 13.7 80 1.9 SE 15 19 8 10 1026.0 1025.9 0.2
16/06:30am 17.0 15.4 13.8 81 1.8 SE 15 20 8 11 1025.4 1025.3 0.2
16/06:00am 16.9 14.8 13.7 81 1.8 SE 17 20 9 11 1025.3 1025.2 0.2
16/05:30am 16.9 14.0 14.1 83 1.6 SE 22 30 12 16 1024.2 1024.1 0.2
16/05:00am 17.0 14.2 14.2 83 1.6 SSE 22 30 12 16 1023.7 1023.6 0.2
16/04:30am 17.0 15.3 14.7 86 1.3 SSE 17 24 9 13 1023.9 1023.8 0.2
16/04:00am 17.3 15.2 14.7 85 1.5 S 19 24 10 13 1023.7 1023.6 0.2
16/03:30am 17.0 14.7 14.2 83 1.6 SSE 19 26 10 14 1023.3 1023.2 0.2
16/03:00am 17.0 14.7 14.0 82 1.7 S 19 24 10 13 1023.7 1023.6 0.2
16/02:30am 16.8 15.3 14.2 85 1.5 SSE 15 17 8 9 1024.4 1024.3 0.2
16/02:00am 16.9 14.5 13.9 82 1.7 SSE 19 22 10 12 1024.2 1024.1 0.2
16/01:30am 16.8 14.8 14.0 83 1.6 S 17 22 9 12 1024.5 1024.4 0.2
16/01:00am 16.6 15.4 13.9 84 1.5 S 13 19 7 10 1024.3 1024.2 0.2
16/12:30am 16.9 15.7 14.1 83 1.6 SSE 13 17 7 9 1024.1 1024.0 0.2
16/12:00am 17.0 15.5 14.2 83 1.6 S 15 20 8 11 1024.0 1023.9 0.2
 
Date/Time
CST
Temp
°C
App
Temp
°C
Dew
Point
Rel
Hum
%
Delta-T
°C
Wind Press
QNH
hPa
Press
MSL
hPa
Rain
since 9 am
mm
Dir
 
Spd
km/h
Gust
km/h
Spd
kts
Gust
kts
15/11:30pm 17.1 15.7 14.5 85 1.5 SSE 15 20 8 11 1023.8 1023.7 0.2
15/11:00pm 17.2 15.4 14.4 83 1.6 SSE 17 20 9 11 1023.9 1023.8 0.2
15/10:30pm 17.3 15.6 14.7 85 1.5 SSE 17 20 9 11 1023.9 1023.8 0.2
15/10:00pm 17.4 16.1 14.8 85 1.5 SSE 15 19 8 10 1023.9 1023.8 0.2
15/09:30pm 17.5 16.1 14.5 82 1.7 SSE 15 20 8 11 1023.9 1023.8 0.2
15/09:00pm 17.7 15.9 14.4 81 1.9 SSE 17 20 9 11 1023.6 1023.5 0.2
15/08:30pm 17.8 16.0 14.5 81 1.9 SSE 17 20 9 11 1023.5 1023.4 0.2
15/08:00pm 17.7 16.7 14.6 82 1.8 SSE 13 19 7 10 1023.4 1023.3 0.2
15/07:30pm 17.5 17.0 14.9 85 1.5 SSW 11 15 6 8 1023.4 1023.3 0.2
15/07:00pm 17.5 17.0 14.9 85 1.5 SW 11 17 6 9 1023.1 1023.0 0.2
15/06:30pm 17.4 16.7 14.4 82 1.7 WSW 11 15 6 8 1022.8 1022.7 0.2
15/06:00pm 18.3 16.1 14.5 78 2.2 SW 19 22 10 12 1022.1 1022.0 0.2
15/05:30pm 19.2 16.7 14.0 72 3.0 SW 20 26 11 14 1021.8 1021.7 0.2
15/05:00pm 20.7 18.0 12.9 61 4.4 WSW 19 24 10 13 1021.6 1021.5 0.2
15/04:30pm 20.9 17.8 12.3 58 4.8 SW 20 30 11 16 1021.1 1021.0 0.2
15/04:00pm 21.6 18.1 12.2 55 5.3 WSW 22 28 12 15 1020.9 1020.8 0.2
15/03:30pm 21.5 17.5 13.1 58 4.8 SW 26 32 14 17 1020.6 1020.5 0.2
15/03:00pm 22.1 18.2 12.1 53 5.6 SW 24 30 13 16 1020.4 1020.3 0.2
15/02:30pm 22.8 19.0 12.4 52 5.9 SW 24 32 13 17 1020.2 1020.1 0.2

Other Formats:

Comma delimited format used in spreadsheet applications
http://www.bom.gov.au/fwo/IDS60801/IDS60801.94809.axf

JavaScript Object Notation format (JSON) in row-major order
http://www.bom.gov.au/fwo/IDS60801/IDS60801.94809.json